Time;durP1;ratioP1;P1;durP2;ratioP2;P2;SDS_P1;SDS_P2;PMS_P1;PMS_P2;Temp;Humidity;BMP_temperature;BMP_pressure;BME280_temperature;BME280_humidity;BME280_pressure;Samples;Min_cycle;Max_cycle;Signal;HPM_P1;HPM_P2
2022/07/10 00:00:24;;;;;;;;;;;;;;;;;;5012422;28;19909;-71
2022/07/10 00:02:52;;;;;;;;;;;;;;;;;;5013556;28;19936;-71
2022/07/10 00:05:18;;;;;;;;;;;;;;;;;;5012716;28;19918;-71
2022/07/10 00:07:44;;;;;;;;;;;;;;;;;;5012947;28;19916;-71
2022/07/10 00:10:10;;;;;;;;;;;;;;;;;;5013206;28;20377;-71
2022/07/10 00:12:36;;;;;;;;;;;;;;;;;;5013298;28;19944;-71
2022/07/10 00:15:02;;;;;;;;;;;;;;;;;;5013212;28;20355;-71
2022/07/10 00:17:28;;;;;;;;;;;;;;;;;;5012928;28;19914;-71
2022/07/10 00:19:54;;;;;;;;;;;;;;;;;;5010780;28;19921;-71
2022/07/10 00:22:19;;;;;;;;;;;;;;;;;;5012973;28;19909;-71
2022/07/10 00:24:46;;;;;;;;;;;;;;;;;;5012745;28;19925;-71
2022/07/10 00:27:12;;;;;;;;;;;;;;;;;;5018575;28;20400;-71
2022/07/10 00:29:39;;;;;;;;;;;;;;;;;;5012769;28;19914;-71
2022/07/10 00:32:04;;;;;;;;;;;;;;;;;;5013125;28;19905;-71
2022/07/10 00:34:30;;;;;;;;;;;;;;;;;;5012868;28;20322;-71
2022/07/10 00:36:56;;;;;;;;;;;;;;;;;;5011792;28;19960;-71
2022/07/10 00:39:22;;;;;;;;;;;;;;;;;;5011962;28;19923;-71
2022/07/10 00:41:48;;;;;;;;;;;;;;;;;;5012570;28;19964;-71
2022/07/10 00:44:14;;;;;;;;;;;;;;;;;;5010982;28;19980;-70
2022/07/10 00:46:40;;;;;;;;;;;;;;;;;;5012792;28;19960;-71
2022/07/10 00:49:06;;;;;;;;;;;;;;;;;;5012775;28;19937;-71
2022/07/10 00:51:33;;;;;;;;;;;;;;;;;;5012078;28;20000;-71
2022/07/10 00:54:00;;;;;;;;;;;;;;;;;;5012226;28;19910;-71
2022/07/10 00:56:26;;;;;;;;;;;;;;;;;;5012505;28;20005;-71
2022/07/10 00:58:51;;;;;;;;;;;;;;;;;;5012017;28;19949;-70
2022/07/10 01:01:17;;;;;;;;;;;;;;;;;;5012748;28;19913;-71
2022/07/10 01:03:45;;;;;;;;;;;;;;;;;;5012282;28;19917;-71
2022/07/10 01:06:11;;;;;;;;;;;;;;;;;;5011988;28;19909;-71
2022/07/10 01:08:37;;;;;;;;;;;;;;;;;;5012966;28;19991;-71
2022/07/10 01:11:03;;;;;;;;;;;;;;;;;;5012574;28;20398;-71
2022/07/10 01:13:29;;;;;;;;;;;;;;;;;;5011954;28;20393;-71
2022/07/10 01:15:55;;;;;;;;;;;;;;;;;;5012151;28;20004;-71
2022/07/10 01:18:21;;;;;;;;;;;;;;;;;;5012143;28;19961;-71
2022/07/10 01:20:47;;;;;;;;;;;;;;;;;;5011711;28;19957;-71
2022/07/10 01:23:13;;;;;;;;;;;;;;;;;;5012295;28;20387;-71
2022/07/10 01:25:39;;;;;;;;;;;;;;;;;;5012247;28;19976;-72
2022/07/10 01:28:05;;;;;;;;;;;;;;;;;;5013086;28;20325;-71
2022/07/10 01:30:31;;;;;;;;;;;;;;;;;;5012387;28;20302;-71
2022/07/10 01:32:57;;;;;;;;;;;;;;;;;;5012054;28;19992;-71
2022/07/10 01:35:23;;;;;;;;;;;;;;;;;;5012313;28;19914;-70
2022/07/10 01:37:49;;;;;;;;;;;;;;;;;;5012180;28;20000;-71
2022/07/10 01:40:15;;;;;;;;;;;;;;;;;;5011797;28;19940;-70
2022/07/10 01:42:41;;;;;;;;;;;;;;;;;;5012180;28;20387;-71
2022/07/10 01:45:07;;;;;;;;;;;;;;;;;;5012246;28;19925;-71
2022/07/10 01:47:33;;;;;;;;;;;;;;;;;;5011774;28;19917;-71
2022/07/10 01:49:59;;;;;;;;;;;;;;;;;;5011617;28;19913;-71
2022/07/10 01:52:25;;;;;;;;;;;;;;;;;;5010845;28;19916;-71
2022/07/10 01:54:51;;;;;;;;;;;;;;;;;;5012413;28;19948;-71
2022/07/10 01:57:17;;;;;;;;;;;;;;;;;;5011935;28;19944;-71
2022/07/10 01:59:43;;;;;;;;;;;;;;;;;;5015578;28;19913;-70
2022/07/10 02:02:09;;;;;;;;;;;;;;;;;;5014676;28;19913;-71
2022/07/10 02:04:40;;;;;;;;;;;;;;;;;;5015188;28;19917;-71
2022/07/10 02:07:06;;;;;;;;;;;;;;;;;;5015173;28;19949;-71
2022/07/10 02:09:32;;;;;;;;;;;;;;;;;;5015353;28;19949;-71
2022/07/10 02:11:58;;;;;;;;;;;;;;;;;;5015044;28;19956;-71
2022/07/10 02:14:24;;;;;;;;;;;;;;;;;;5015125;28;19996;-71
2022/07/10 02:16:50;;;;;;;;;;;;;;;;;;5015247;28;19910;-71
2022/07/10 02:19:16;;;;;;;;;;;;;;;;;;5015210;28;20402;-69
2022/07/10 02:21:42;;;;;;;;;;;;;;;;;;5015214;28;20004;-71
2022/07/10 02:24:08;;;;;;;;;;;;;;;;;;5014548;28;20342;-71
2022/07/10 02:26:34;;;;;;;;;;;;;;;;;;5021237;28;19917;-71
2022/07/10 02:29:00;;;;;;;;;;;;;;;;;;5034756;28;20004;-71
2022/07/10 02:31:26;;;;;;;;;;;;;;;;;;5034887;28;19924;-70
2022/07/10 02:33:52;;;;;;;;;;;;;;;;;;5027047;28;19909;-70
2022/07/10 02:36:18;;;;;;;;;;;;;;;;;;5015035;28;19909;-71
2022/07/10 02:38:43;;;;;;;;;;;;;;;;;;5014873;28;19917;-71
2022/07/10 02:41:09;;;;;;;;;;;;;;;;;;5014207;28;19930;-70
2022/07/10 02:43:35;;;;;;;;;;;;;;;;;;5014542;28;19913;-71
2022/07/10 02:46:01;;;;;;;;;;;;;;;;;;5015259;28;19916;-71
2022/07/10 02:48:27;;;;;;;;;;;;;;;;;;5014331;28;20009;-71
2022/07/10 02:50:53;;;;;;;;;;;;;;;;;;5014632;28;19953;-71
2022/07/10 02:53:19;;;;;;;;;;;;;;;;;;5014330;28;20334;-71
2022/07/10 02:55:45;;;;;;;;;;;;;;;;;;5014411;28;19937;-71
2022/07/10 02:58:11;;;;;;;;;;;;;;;;;;5014783;28;20359;-71
2022/07/10 03:00:37;;;;;;;;;;;;;;;;;;5014158;28;19910;-70
2022/07/10 03:03:03;;;;;;;;;;;;;;;;;;5013854;28;20339;-71
2022/07/10 03:05:29;;;;;;;;;;;;;;;;;;5014349;28;19917;-71
2022/07/10 03:07:55;;;;;;;;;;;;;;;;;;5013974;28;19950;-71
2022/07/10 03:10:21;;;;;;;;;;;;;;;;;;5013342;28;19972;-71
2022/07/10 03:12:47;;;;;;;;;;;;;;;;;;5014699;28;20374;-70
2022/07/10 03:15:13;;;;;;;;;;;;;;;;;;5014257;28;20326;-71
2022/07/10 03:17:39;;;;;;;;;;;;;;;;;;5013489;28;19913;-70
2022/07/10 03:20:05;;;;;;;;;;;;;;;;;;5014213;28;19913;-70
2022/07/10 03:22:32;;;;;;;;;;;;;;;;;;5014298;28;19917;-71
2022/07/10 03:24:58;;;;;;;;;;;;;;;;;;5013919;28;20016;-71
2022/07/10 03:27:24;;;;;;;;;;;;;;;;;;5026991;28;20334;-71
2022/07/10 03:29:50;;;;;;;;;;;;;;;;;;5033969;28;20034;-70
2022/07/10 03:32:16;;;;;;;;;;;;;;;;;;5018937;28;19991;-71
2022/07/10 03:34:42;;;;;;;;;;;;;;;;;;5013256;28;19921;-71
2022/07/10 03:37:08;;;;;;;;;;;;;;;;;;5013697;28;19913;-71
2022/07/10 03:39:34;;;;;;;;;;;;;;;;;;5013623;28;19971;-71
2022/07/10 03:42:00;;;;;;;;;;;;;;;;;;5013893;28;20278;-71
2022/07/10 03:44:26;;;;;;;;;;;;;;;;;;5013526;28;19921;-71
2022/07/10 03:46:52;;;;;;;;;;;;;;;;;;5012936;28;19921;-71
2022/07/10 03:49:18;;;;;;;;;;;;;;;;;;5013471;28;19921;-70
2022/07/10 03:51:44;;;;;;;;;;;;;;;;;;5013589;28;19913;-70
2022/07/10 03:54:09;;;;;;;;;;;;;;;;;;5013253;28;19956;-71
2022/07/10 03:59:20;;;;;;;;;;;;;;;;;;5013323;28;19944;-70
2022/07/10 04:01:46;;;;;;;;;;;;;;;;;;5012925;28;20339;-71
2022/07/10 04:04:12;;;;;;;;;;;;;;;;;;5013559;28;19960;-71
2022/07/10 04:06:38;;;;;;;;;;;;;;;;;;5013144;28;19913;-71
2022/07/10 04:09:04;;;;;;;;;;;;;;;;;;5012455;28;19972;-71
2022/07/10 04:11:30;;;;;;;;;;;;;;;;;;5013517;28;19909;-71
2022/07/10 04:13:56;;;;;;;;;;;;;;;;;;5013338;28;19909;-71
2022/07/10 04:16:22;;;;;;;;;;;;;;;;;;5012944;28;20328;-71
2022/07/10 04:18:48;;;;;;;;;;;;;;;;;;5013159;28;20494;-71
2022/07/10 04:21:14;;;;;;;;;;;;;;;;;;5011399;28;20004;-71
2022/07/10 04:23:40;;;;;;;;;;;;;;;;;;5012754;28;20382;-71
2022/07/10 04:26:06;;;;;;;;;;;;;;;;;;5015783;28;19996;-71
2022/07/10 04:28:32;;;;;;;;;;;;;;;;;;5032745;28;19913;-71
2022/07/10 04:31:01;;;;;;;;;;;;;;;;;;5026498;28;19913;-71
2022/07/10 04:33:26;;;;;;;;;;;;;;;;;;5012899;28;20341;-71
2022/07/10 04:35:52;;;;;;;;;;;;;;;;;;5012712;28;19905;-71
2022/07/10 04:38:18;;;;;;;;;;;;;;;;;;5012776;28;20363;-71
2022/07/10 04:40:44;;;;;;;;;;;;;;;;;;5012139;28;19922;-71
2022/07/10 04:43:11;;;;;;;;;;;;;;;;;;5012507;28;19912;-71
2022/07/10 04:45:40;;;;;;;;;;;;;;;;;;5010983;28;20204;-71
2022/07/10 04:48:06;;;;;;;;;;;;;;;;;;5012893;28;19964;-70
2022/07/10 04:50:32;;;;;;;;;;;;;;;;;;5012623;28;19914;-71
2022/07/10 04:52:58;;;;;;;;;;;;;;;;;;5012644;28;19910;-71
2022/07/10 04:55:23;;;;;;;;;;;;;;;;;;5012626;28;19914;-71
2022/07/10 04:57:49;;;;;;;;;;;;;;;;;;5012211;28;19910;-71
2022/07/10 05:00:15;;;;;;;;;;;;;;;;;;5012341;28;20369;-71
2022/07/10 05:02:41;;;;;;;;;;;;;;;;;;5013325;28;20343;-71
2022/07/10 05:05:07;;;;;;;;;;;;;;;;;;5011962;28;19918;-71
2022/07/10 05:07:33;;;;;;;;;;;;;;;;;;5012105;28;20279;-71
2022/07/10 05:09:59;;;;;;;;;;;;;;;;;;5012607;28;19910;-71
2022/07/10 05:12:25;;;;;;;;;;;;;;;;;;5012100;28;20004;-71
2022/07/10 05:14:51;;;;;;;;;;;;;;;;;;5012365;28;19909;-70
2022/07/10 05:17:17;;;;;;;;;;;;;;;;;;5012277;28;19968;-70
2022/07/10 05:19:43;;;;;;;;;;;;;;;;;;5012558;28;19916;-71
2022/07/10 05:22:09;;;;;;;;;;;;;;;;;;5012721;28;19996;-71
2022/07/10 05:24:35;;;;;;;;;;;;;;;;;;5012241;28;19925;-71
2022/07/10 05:27:01;;;;;;;;;;;;;;;;;;5013219;28;19913;-71
2022/07/10 05:29:27;;;;;;;;;;;;;;;;;;5012522;28;20298;-71
2022/07/10 05:31:53;;;;;;;;;;;;;;;;;;5012114;28;20283;-71
2022/07/10 05:34:19;;;;;;;;;;;;;;;;;;5016401;28;19931;-71
2022/07/10 05:36:45;;;;;;;;;;;;;;;;;;5015852;28;19906;-71
2022/07/10 05:39:11;;;;;;;;;;;;;;;;;;5015868;28;20060;-71
2022/07/10 05:41:37;;;;;;;;;;;;;;;;;;5015563;28;19921;-71
2022/07/10 05:44:02;;;;;;;;;;;;;;;;;;5015950;28;20343;-71
2022/07/10 05:46:29;;;;;;;;;;;;;;;;;;5016326;28;19909;-71
2022/07/10 05:48:55;;;;;;;;;;;;;;;;;;5015417;28;20401;-71
2022/07/10 05:51:21;;;;;;;;;;;;;;;;;;5015339;28;19921;-71
2022/07/10 05:53:47;;;;;;;;;;;;;;;;;;5015850;28;19916;-71
2022/07/10 05:56:13;;;;;;;;;;;;;;;;;;5015634;28;19920;-71
2022/07/10 05:58:39;;;;;;;;;;;;;;;;;;5015690;28;19909;-70
2022/07/10 06:01:05;;;;;;;;;;;;;;;;;;5015729;28;20346;-71
2022/07/10 06:03:31;;;;;;;;;;;;;;;;;;5015992;28;19996;-71
2022/07/10 06:05:57;;;;;;;;;;;;;;;;;;5015830;28;20354;-71
2022/07/10 06:08:23;;;;;;;;;;;;;;;;;;5015587;28;19917;-70
2022/07/10 06:10:49;;;;;;;;;;;;;;;;;;5015250;28;20017;-71
2022/07/10 06:13:15;;;;;;;;;;;;;;;;;;5014718;28;20383;-71
2022/07/10 06:15:41;;;;;;;;;;;;;;;;;;5015423;28;19917;-71
2022/07/10 06:18:07;;;;;;;;;;;;;;;;;;5015513;28;19906;-70
2022/07/10 06:20:33;;;;;;;;;;;;;;;;;;5015242;28;20339;-71
2022/07/10 06:22:59;;;;;;;;;;;;;;;;;;5014186;28;20370;-71
2022/07/10 06:25:25;;;;;;;;;;;;;;;;;;5014748;28;19925;-71
2022/07/10 06:27:50;;;;;;;;;;;;;;;;;;5032096;28;19916;-71
2022/07/10 06:30:16;;;;;;;;;;;;;;;;;;5034742;28;19913;-71
2022/07/10 06:32:44;;;;;;;;;;;;;;;;;;5034901;28;19913;-71
2022/07/10 06:35:10;;;;;;;;;;;;;;;;;;5035271;28;19909;-71
2022/07/10 06:37:36;;;;;;;;;;;;;;;;;;5026600;28;19913;-72
2022/07/10 06:40:02;;;;;;;;;;;;;;;;;;5014208;28;19964;-71
2022/07/10 06:42:28;;;;;;;;;;;;;;;;;;5015287;28;20287;-71
2022/07/10 06:44:54;;;;;;;;;;;;;;;;;;5014794;28;19922;-71
2022/07/10 06:50:04;;;;;;;;;;;;;;;;;;5014952;28;20302;-71
2022/07/10 06:52:30;;;;;;;;;;;;;;;;;;5014575;28;19913;-71
2022/07/10 06:54:56;;;;;;;;;;;;;;;;;;5013984;28;19916;-71
2022/07/10 06:57:22;;;;;;;;;;;;;;;;;;5014701;28;19968;-71
2022/07/10 06:59:48;;;;;;;;;;;;;;;;;;5013175;28;19918;-70
2022/07/10 07:02:14;;;;;;;;;;;;;;;;;;5014395;28;19940;-71
2022/07/10 07:04:40;;;;;;;;;;;;;;;;;;5014510;28;20032;-71
2022/07/10 07:07:06;;;;;;;;;;;;;;;;;;5014173;28;19947;-71
2022/07/10 07:09:32;;;;;;;;;;;;;;;;;;5013996;28;20298;-71
2022/07/10 07:11:58;;;;;;;;;;;;;;;;;;5014475;28;19913;-71
2022/07/10 07:14:24;;;;;;;;;;;;;;;;;;5014179;28;19920;-70
2022/07/10 07:17:03;;;;;;;;;;;;;;;;;;5014211;28;19952;-71
2022/07/10 07:23:09;;;;;;;;;;;;;;;;;;5013936;28;20321;-70
2022/07/10 07:25:03;;;;;;;;;;;;;;;;;;5013481;28;19964;-70
2022/07/10 07:27:29;;;;;;;;;;;;;;;;;;5027718;28;20354;-71
2022/07/10 07:29:55;;;;;;;;;;;;;;;;;;5033803;28;19952;-71
2022/07/10 07:32:21;;;;;;;;;;;;;;;;;;5033700;28;19909;-71
2022/07/10 07:34:47;;;;;;;;;;;;;;;;;;5025821;28;19914;-70
2022/07/10 07:37:12;;;;;;;;;;;;;;;;;;5003323;28;19971;-71
2022/07/10 07:39:38;;;;;;;;;;;;;;;;;;5002899;28;19913;-71
2022/07/10 07:42:04;;;;;;;;;;;;;;;;;;5010600;28;19925;-73
2022/07/10 07:44:30;;;;;;;;;;;;;;;;;;5006670;28;20358;-78
2022/07/10 07:46:56;;;;;;;;;;;;;;;;;;5011250;28;20446;-74
2022/07/10 07:49:22;;;;;;;;;;;;;;;;;;5011613;28;19949;-79
2022/07/10 07:51:48;;;;;;;;;;;;;;;;;;5000387;28;19913;-75
2022/07/10 07:54:16;;;;;;;;;;;;;;;;;;5008426;28;19929;-74
2022/07/10 07:56:42;;;;;;;;;;;;;;;;;;5012240;28;19914;-76
2022/07/10 07:59:08;;;;;;;;;;;;;;;;;;5009978;28;20355;-81
2022/07/10 08:01:34;;;;;;;;;;;;;;;;;;5005255;28;19918;-77
2022/07/10 08:04:00;;;;;;;;;;;;;;;;;;5008675;28;20397;-74
2022/07/10 08:06:26;;;;;;;;;;;;;;;;;;5009436;28;19921;-74
2022/07/10 08:08:51;;;;;;;;;;;;;;;;;;5009169;28;20016;-80
2022/07/10 08:11:17;;;;;;;;;;;;;;;;;;5010578;28;19968;-77
2022/07/10 08:13:43;;;;;;;;;;;;;;;;;;5009003;28;19949;-77
2022/07/10 08:16:09;;;;;;;;;;;;;;;;;;5008750;28;19983;-83
2022/07/10 08:18:35;;;;;;;;;;;;;;;;;;5007535;28;19917;-84
2022/07/10 08:21:01;;;;;;;;;;;;;;;;;;5007556;28;19944;-76
2022/07/10 08:23:27;;;;;;;;;;;;;;;;;;5010355;28;19913;-76
2022/07/10 08:25:53;;;;;;;;;;;;;;;;;;5010844;28;20516;-83
2022/07/10 08:28:19;;;;;;;;;;;;;;;;;;5007949;28;20374;-77
2022/07/10 08:30:46;;;;;;;;;;;;;;;;;;5011608;28;20017;-74
2022/07/10 08:33:12;;;;;;;;;;;;;;;;;;5008781;28;19999;-77
2022/07/10 08:35:38;;;;;;;;;;;;;;;;;;5012127;28;19960;-74
2022/07/10 08:38:06;;;;;;;;;;;;;;;;;;5008973;28;20352;-73
2022/07/10 08:40:32;;;;;;;;;;;;;;;;;;5010653;28;20440;-74
2022/07/10 08:42:58;;;;;;;;;;;;;;;;;;5007260;28;19925;-74
2022/07/10 08:45:24;;;;;;;;;;;;;;;;;;4999930;28;19983;-82
2022/07/10 08:47:51;;;;;;;;;;;;;;;;;;5007249;28;19999;-74
2022/07/10 08:50:17;;;;;;;;;;;;;;;;;;5008995;28;19917;-79
2022/07/10 08:52:44;;;;;;;;;;;;;;;;;;5005122;28;20323;-78
2022/07/10 08:55:10;;;;;;;;;;;;;;;;;;5007033;28;19922;-80
2022/07/10 08:57:36;;;;;;;;;;;;;;;;;;5004672;28;20125;-77
2022/07/10 09:00:02;;;;;;;;;;;;;;;;;;5009199;28;20405;-75
2022/07/10 09:02:28;;;;;;;;;;;;;;;;;;5002457;28;19924;-75
2022/07/10 09:04:54;;;;;;;;;;;;;;;;;;5008857;28;20016;-73
2022/07/10 09:07:20;;;;;;;;;;;;;;;;;;5010092;28;20506;-71
2022/07/10 09:09:46;;;;;;;;;;;;;;;;;;5005839;28;20020;-76
2022/07/10 09:12:12;;;;;;;;;;;;;;;;;;5008997;28;20015;-78
2022/07/10 09:14:38;;;;;;;;;;;;;;;;;;5009348;28;19968;-72
2022/07/10 09:17:04;;;;;;;;;;;;;;;;;;5015044;28;19918;-73
2022/07/10 09:19:29;;;;;;;;;;;;;;;;;;5015425;28;19913;-79
2022/07/10 09:21:56;;;;;;;;;;;;;;;;;;5006737;28;19956;-73
2022/07/10 09:24:23;;;;;;;;;;;;;;;;;;5011159;28;19960;-77
2022/07/10 09:26:49;;;;;;;;;;;;;;;;;;5009997;28;20355;-75
2022/07/10 09:29:15;;;;;;;;;;;;;;;;;;5005178;28;19964;-77
2022/07/10 09:31:40;;;;;;;;;;;;;;;;;;5011359;28;19913;-77
2022/07/10 09:34:06;;;;;;;;;;;;;;;;;;5003842;28;19909;-73
2022/07/10 09:36:32;;;;;;;;;;;;;;;;;;5012610;28;19917;-77
2022/07/10 09:39:00;;;;;;;;;;;;;;;;;;5011185;28;19920;-78
2022/07/10 09:41:26;;;;;;;;;;;;;;;;;;5013467;28;20394;-77
2022/07/10 09:43:52;;;;;;;;;;;;;;;;;;5013262;28;20347;-78
2022/07/10 09:46:17;;;;;;;;;;;;;;;;;;5013995;28;19921;-77
2022/07/10 09:48:44;;;;;;;;;;;;;;;;;;5013756;28;19929;-77
2022/07/10 09:51:10;;;;;;;;;;;;;;;;;;5012972;28;19914;-77
2022/07/10 09:53:36;;;;;;;;;;;;;;;;;;5007739;28;19937;-77
2022/07/10 09:56:01;;;;;;;;;;;;;;;;;;5008318;28;20374;-78
2022/07/10 09:58:27;;;;;;;;;;;;;;;;;;5013710;28;19913;-78
2022/07/10 10:00:53;;;;;;;;;;;;;;;;;;5013331;28;19952;-78
2022/07/10 10:03:19;;;;;;;;;;;;;;;;;;5012239;28;19917;-77
2022/07/10 10:05:45;;;;;;;;;;;;;;;;;;5015437;28;20400;-78
2022/07/10 10:08:14;;;;;;;;;;;;;;;;;;5011749;28;19920;-77
2022/07/10 10:10:40;;;;;;;;;;;;;;;;;;5008197;28;20371;-78
2022/07/10 10:13:06;;;;;;;;;;;;;;;;;;5012102;28;19914;-78
2022/07/10 10:15:32;;;;;;;;;;;;;;;;;;5010094;28;19922;-74
2022/07/10 10:17:57;;;;;;;;;;;;;;;;;;5008278;28;20290;-78
2022/07/10 10:20:41;;;;;;;;;;;;;;;;;;5012381;28;19995;-77
2022/07/10 10:23:07;;;;;;;;;;;;;;;;;;5012386;28;19918;-75
2022/07/10 10:25:34;;;;;;;;;;;;;;;;;;5013461;28;20298;-76
2022/07/10 10:28:00;;;;;;;;;;;;;;;;;;5014128;28;19917;-77
2022/07/10 10:30:26;;;;;;;;;;;;;;;;;;5013512;28;19917;-77
2022/07/10 10:32:52;;;;;;;;;;;;;;;;;;5014282;28;19917;-75
2022/07/10 10:35:18;;;;;;;;;;;;;;;;;;5014794;28;20004;-75
2022/07/10 10:37:44;;;;;;;;;;;;;;;;;;5014558;28;19956;-75
2022/07/10 10:40:10;;;;;;;;;;;;;;;;;;5014834;28;20390;-76
2022/07/10 10:42:36;;;;;;;;;;;;;;;;;;5014746;28;19956;-76
2022/07/10 10:45:02;;;;;;;;;;;;;;;;;;5014551;28;19940;-79
2022/07/10 10:47:28;;;;;;;;;;;;;;;;;;5014289;28;20378;-77
2022/07/10 10:49:56;;;;;;;;;;;;;;;;;;5014793;28;19923;-77
2022/07/10 10:52:24;;;;;;;;;;;;;;;;;;5014632;28;19913;-76
2022/07/10 10:54:50;;;;;;;;;;;;;;;;;;5014590;28;19914;-75
2022/07/10 10:57:16;;;;;;;;;;;;;;;;;;5013202;28;19917;-77
2022/07/10 10:59:42;;;;;;;;;;;;;;;;;;5013818;28;20000;-74
2022/07/10 11:02:08;;;;;;;;;;;;;;;;;;5012629;28;19941;-74
2022/07/10 11:04:34;;;;;;;;;;;;;;;;;;5012482;28;19968;-75
2022/07/10 11:07:00;;;;;;;;;;;;;;;;;;5012123;28;19991;-75
2022/07/10 11:09:26;;;;;;;;;;;;;;;;;;5012474;28;20000;-76
2022/07/10 11:11:52;;;;;;;;;;;;;;;;;;5011249;28;20005;-73
2022/07/10 11:14:18;;;;;;;;;;;;;;;;;;5013020;28;19914;-73
2022/07/10 11:16:44;;;;;;;;;;;;;;;;;;5011169;28;20359;-72
2022/07/10 11:19:10;;;;;;;;;;;;;;;;;;5012173;28;19967;-72
2022/07/10 11:21:36;;;;;;;;;;;;;;;;;;5012357;28;19989;-73
2022/07/10 11:24:02;;;;;;;;;;;;;;;;;;5013865;28;19917;-73
2022/07/10 11:26:28;;;;;;;;;;;;;;;;;;5012958;28;19964;-73
2022/07/10 11:28:54;;;;;;;;;;;;;;;;;;5013449;28;19914;-72
2022/07/10 11:31:20;;;;;;;;;;;;;;;;;;5013063;28;20030;-72
2022/07/10 11:33:46;;;;;;;;;;;;;;;;;;5013555;28;19949;-73
2022/07/10 11:36:13;;;;;;;;;;;;;;;;;;5011287;28;19976;-72
2022/07/10 11:38:39;;;;;;;;;;;;;;;;;;5012465;28;19914;-72
2022/07/10 11:41:05;;;;;;;;;;;;;;;;;;5011902;28;20405;-72
2022/07/10 11:43:31;;;;;;;;;;;;;;;;;;5013041;28;19913;-72
2022/07/10 11:46:00;;;;;;;;;;;;;;;;;;5012070;28;19917;-73
2022/07/10 11:48:26;;;;;;;;;;;;;;;;;;5013005;28;19980;-73
2022/07/10 11:50:52;;;;;;;;;;;;;;;;;;5012616;28;20355;-72
2022/07/10 11:53:18;;;;;;;;;;;;;;;;;;5012950;28;19917;-72
2022/07/10 11:55:44;;;;;;;;;;;;;;;;;;5012079;28;19921;-73
2022/07/10 11:58:10;;;;;;;;;;;;;;;;;;5013270;28;19988;-72
2022/07/10 12:00:36;;;;;;;;;;;;;;;;;;5011203;28;19932;-72
2022/07/10 12:03:02;;;;;;;;;;;;;;;;;;5018983;28;19943;-72
2022/07/10 12:05:28;;;;;;;;;;;;;;;;;;5012294;28;19921;-74
2022/07/10 12:07:54;;;;;;;;;;;;;;;;;;5013907;28;19924;-73
2022/07/10 12:10:20;;;;;;;;;;;;;;;;;;5011484;28;19913;-72
2022/07/10 12:12:46;;;;;;;;;;;;;;;;;;5012380;28;19920;-73
2022/07/10 12:15:12;;;;;;;;;;;;;;;;;;5012434;28;20016;-72
2022/07/10 12:17:38;;;;;;;;;;;;;;;;;;5012225;28;20001;-72
2022/07/10 12:20:04;;;;;;;;;;;;;;;;;;5012985;28;20490;-73
2022/07/10 12:22:30;;;;;;;;;;;;;;;;;;5012293;28;20004;-73
2022/07/10 12:24:56;;;;;;;;;;;;;;;;;;5012038;28;19964;-76
2022/07/10 12:27:22;;;;;;;;;;;;;;;;;;5012239;28;19957;-75
2022/07/10 12:29:47;;;;;;;;;;;;;;;;;;5012019;28;19967;-79
2022/07/10 12:32:19;;;;;;;;;;;;;;;;;;5012379;28;20000;-75
2022/07/10 12:34:47;;;;;;;;;;;;;;;;;;5011960;28;19940;-83
2022/07/10 12:37:13;;;;;;;;;;;;;;;;;;5011686;28;19917;-81
2022/07/10 12:39:38;;;;;;;;;;;;;;;;;;5011653;28;19920;-76
2022/07/10 12:42:04;;;;;;;;;;;;;;;;;;5011660;28;20260;-75
2022/07/10 12:44:30;;;;;;;;;;;;;;;;;;5011529;28;20423;-74
2022/07/10 12:46:56;;;;;;;;;;;;;;;;;;5011226;28;19944;-73
2022/07/10 12:49:22;;;;;;;;;;;;;;;;;;5010924;28;19956;-74
2022/07/10 12:51:48;;;;;;;;;;;;;;;;;;5010536;28;19960;-75
2022/07/10 12:54:14;;;;;;;;;;;;;;;;;;5007986;28;20402;-82
2022/07/10 12:56:40;;;;;;;;;;;;;;;;;;5007742;28;19913;-80
2022/07/10 12:59:06;;;;;;;;;;;;;;;;;;5008185;28;19913;-81
2022/07/10 13:01:32;;;;;;;;;;;;;;;;;;5008103;28;20306;-79
2022/07/10 13:03:58;;;;;;;;;;;;;;;;;;5006131;28;20375;-77
2022/07/10 13:06:24;;;;;;;;;;;;;;;;;;5007051;28;19975;-80
2022/07/10 13:08:50;;;;;;;;;;;;;;;;;;5006064;28;20009;-78
2022/07/10 13:11:15;;;;;;;;;;;;;;;;;;5002183;28;20032;-80
2022/07/10 13:13:41;;;;;;;;;;;;;;;;;;5005571;28;19928;-78
2022/07/10 13:16:07;;;;;;;;;;;;;;;;;;5008280;28;19914;-84
2022/07/10 13:18:33;;;;;;;;;;;;;;;;;;5006535;28;20347;-79
2022/07/10 13:21:01;;;;;;;;;;;;;;;;;;5006048;28;19990;-80
2022/07/10 13:23:27;;;;;;;;;;;;;;;;;;5007611;28;20432;-80
2022/07/10 13:25:53;;;;;;;;;;;;;;;;;;5006590;28;20036;-80
2022/07/10 13:28:19;;;;;;;;;;;;;;;;;;5006651;28;20298;-80
2022/07/10 13:30:45;;;;;;;;;;;;;;;;;;5006323;28;19918;-78
2022/07/10 13:33:11;;;;;;;;;;;;;;;;;;5009956;28;19921;-78
2022/07/10 13:35:37;;;;;;;;;;;;;;;;;;5008305;28;19921;-78
2022/07/10 13:38:03;;;;;;;;;;;;;;;;;;5009481;28;20366;-78
2022/07/10 13:40:30;;;;;;;;;;;;;;;;;;5009415;28;20310;-79
2022/07/10 13:42:56;;;;;;;;;;;;;;;;;;5008801;28;19927;-79
2022/07/10 13:45:22;;;;;;;;;;;;;;;;;;5008263;28;19926;-78
2022/07/10 13:47:48;;;;;;;;;;;;;;;;;;5008894;28;20378;-79
2022/07/10 13:50:14;;;;;;;;;;;;;;;;;;5008579;28;19921;-81
2022/07/10 13:52:40;;;;;;;;;;;;;;;;;;5019235;28;19913;-83
2022/07/10 13:55:06;;;;;;;;;;;;;;;;;;5012941;28;19991;-80
2022/07/10 13:57:32;;;;;;;;;;;;;;;;;;5012437;28;20318;-81
2022/07/10 13:59:58;;;;;;;;;;;;;;;;;;5012776;28;19913;-79
2022/07/10 14:02:24;;;;;;;;;;;;;;;;;;5012396;28;19917;-81
2022/07/10 14:04:50;;;;;;;;;;;;;;;;;;5013847;28;19925;-78
2022/07/10 14:07:16;;;;;;;;;;;;;;;;;;5015567;28;19916;-79
2022/07/10 14:09:42;;;;;;;;;;;;;;;;;;5014665;28;20355;-78
2022/07/10 14:12:08;;;;;;;;;;;;;;;;;;5015233;28;19910;-78
2022/07/10 14:14:33;;;;;;;;;;;;;;;;;;5014966;28;19914;-80
2022/07/10 14:16:59;;;;;;;;;;;;;;;;;;5013150;28;19941;-78
2022/07/10 14:19:25;;;;;;;;;;;;;;;;;;5017425;28;19917;-76
2022/07/10 14:21:51;;;;;;;;;;;;;;;;;;5008301;28;19976;-77
2022/07/10 14:24:17;;;;;;;;;;;;;;;;;;5004857;28;19960;-77
2022/07/10 14:26:43;;;;;;;;;;;;;;;;;;5008961;28;20338;-77
2022/07/10 14:29:09;;;;;;;;;;;;;;;;;;5009503;28;20329;-75
2022/07/10 14:31:35;;;;;;;;;;;;;;;;;;5011514;28;19910;-79
2022/07/10 14:34:01;;;;;;;;;;;;;;;;;;5009221;28;20008;-78
2022/07/10 14:36:27;;;;;;;;;;;;;;;;;;5008571;28;19910;-76
2022/07/10 14:38:53;;;;;;;;;;;;;;;;;;5001598;28;19909;-75
2022/07/10 14:41:19;;;;;;;;;;;;;;;;;;5006927;28;19925;-80
2022/07/10 14:43:45;;;;;;;;;;;;;;;;;;5005577;28;19910;-79
2022/07/10 14:46:11;;;;;;;;;;;;;;;;;;5002055;28;20306;-81
2022/07/10 14:48:37;;;;;;;;;;;;;;;;;;5013778;28;19914;-80
2022/07/10 14:51:03;;;;;;;;;;;;;;;;;;5009260;28;20004;-80
2022/07/10 14:53:34;;;;;;;;;;;;;;;;;;5006399;28;20049;-80
2022/07/10 14:56:00;;;;;;;;;;;;;;;;;;5009447;28;19960;-81
2022/07/10 14:58:26;;;;;;;;;;;;;;;;;;5014536;28;19915;-81
2022/07/10 15:00:53;;;;;;;;;;;;;;;;;;5007606;28;19913;-81
2022/07/10 15:03:19;;;;;;;;;;;;;;;;;;5007135;28;20284;-77
2022/07/10 15:05:45;;;;;;;;;;;;;;;;;;5006595;28;20161;-80
2022/07/10 15:08:11;;;;;;;;;;;;;;;;;;4996616;28;19910;-80
2022/07/10 15:10:37;;;;;;;;;;;;;;;;;;5011581;28;19913;-80
2022/07/10 15:13:05;;;;;;;;;;;;;;;;;;5011105;28;19910;-81
2022/07/10 15:15:31;;;;;;;;;;;;;;;;;;5011879;28;20441;-81
2022/07/10 15:17:57;;;;;;;;;;;;;;;;;;5011116;28;19921;-81
2022/07/10 15:20:22;;;;;;;;;;;;;;;;;;5002156;28;19916;-81
2022/07/10 15:22:48;;;;;;;;;;;;;;;;;;5011991;28;20000;-79
2022/07/10 15:25:14;;;;;;;;;;;;;;;;;;5012801;28;19921;-83
2022/07/10 15:27:42;;;;;;;;;;;;;;;;;;5011686;28;20020;-82
2022/07/10 15:30:08;;;;;;;;;;;;;;;;;;5011656;28;19910;-77
2022/07/10 15:32:34;;;;;;;;;;;;;;;;;;5009324;28;19918;-79
2022/07/10 15:35:00;;;;;;;;;;;;;;;;;;5009423;28;19909;-80
2022/07/10 15:37:26;;;;;;;;;;;;;;;;;;5008950;28;19913;-81
2022/07/10 15:39:52;;;;;;;;;;;;;;;;;;5001162;28;19960;-78
2022/07/10 15:42:18;;;;;;;;;;;;;;;;;;5006342;28;19922;-81
2022/07/10 15:44:44;;;;;;;;;;;;;;;;;;5008020;28;20457;-80
2022/07/10 15:47:11;;;;;;;;;;;;;;;;;;5012469;28;19910;-80
2022/07/10 15:49:37;;;;;;;;;;;;;;;;;;5007564;28;20004;-79
2022/07/10 15:52:03;;;;;;;;;;;;;;;;;;5008149;28;20043;-78
2022/07/10 15:54:29;;;;;;;;;;;;;;;;;;5003157;28;20350;-78
2022/07/10 15:56:55;;;;;;;;;;;;;;;;;;5008096;28;19963;-76
2022/07/10 15:59:23;;;;;;;;;;;;;;;;;;5008141;28;19913;-79
2022/07/10 16:01:50;;;;;;;;;;;;;;;;;;5009417;28;19913;-78
2022/07/10 16:04:16;;;;;;;;;;;;;;;;;;5009724;28;19922;-80
2022/07/10 16:06:42;;;;;;;;;;;;;;;;;;5008502;28;19920;-85
2022/07/10 16:09:08;;;;;;;;;;;;;;;;;;5009732;28;19913;-82
2022/07/10 16:11:34;;;;;;;;;;;;;;;;;;5010711;28;19910;-79
2022/07/10 16:13:59;;;;;;;;;;;;;;;;;;5011323;28;20000;-74
2022/07/10 16:16:25;;;;;;;;;;;;;;;;;;5009489;28;20149;-75
2022/07/10 16:18:53;;;;;;;;;;;;;;;;;;5010466;28;19913;-72
2022/07/10 16:21:19;;;;;;;;;;;;;;;;;;5010664;28;19921;-78
2022/07/10 16:23:44;;;;;;;;;;;;;;;;;;5009906;28;20030;-78
2022/07/10 16:26:11;;;;;;;;;;;;;;;;;;5012929;28;19953;-76
2022/07/10 16:28:37;;;;;;;;;;;;;;;;;;5009185;28;19914;-77
2022/07/10 16:31:03;;;;;;;;;;;;;;;;;;5009602;28;19909;-76
2022/07/10 16:33:29;;;;;;;;;;;;;;;;;;5009451;28;19953;-79
2022/07/10 16:35:55;;;;;;;;;;;;;;;;;;5009680;28;20019;-83
2022/07/10 16:38:21;;;;;;;;;;;;;;;;;;5009748;28;20000;-76
2022/07/10 16:40:47;;;;;;;;;;;;;;;;;;5009668;28;20338;-78
